createdAt,value
2023-05-29T00:00:58.914Z,31.16
2023-05-29T00:01:58.968Z,31.13
2023-05-29T00:02:59.112Z,31.15
2023-05-29T00:03:59.382Z,31.17
2023-05-29T00:04:59.249Z,31.15
2023-05-29T00:05:59.202Z,31.18
2023-05-29T00:06:59.259Z,31.13
2023-05-29T00:07:59.325Z,31.12
2023-05-29T00:08:59.384Z,31.19
2023-05-29T00:09:59.443Z,31.11
2023-05-29T00:10:59.498Z,31.13
2023-05-29T00:11:59.542Z,31.16
2023-05-29T00:12:59.633Z,31.13
2023-05-29T00:13:59.761Z,31.13
2023-05-29T00:14:59.762Z,31.18
2023-05-29T00:15:59.811Z,31.16
2023-05-29T00:16:59.971Z,31.12
2023-05-29T00:17:59.990Z,31.16
2023-05-29T00:18:59.990Z,31.15
2023-05-29T00:20:00.609Z,31.15
2023-05-29T00:21:00.147Z,31.16
2023-05-29T00:22:00.159Z,31.13
2023-05-29T00:23:00.220Z,31.13
2023-05-29T00:24:00.302Z,31.13
2023-05-29T00:25:00.344Z,31.09
2023-05-29T00:26:00.392Z,31.15
2023-05-29T00:27:00.477Z,31.15
2023-05-29T00:28:00.521Z,31.09
2023-05-29T00:29:00.677Z,31.16
2023-05-29T00:30:00.680Z,31.09
2023-05-29T00:31:00.717Z,31.15
2023-05-29T00:32:00.822Z,31.15
2023-05-29T00:33:00.916Z,31.14
2023-05-29T00:34:00.867Z,31.13
2023-05-29T00:35:00.966Z,31.13
2023-05-29T00:36:01.022Z,31.15
2023-05-29T00:37:01.137Z,31.07
2023-05-29T00:38:01.118Z,31.13
2023-05-29T00:39:01.177Z,31.07
2023-05-29T00:40:01.263Z,31.09
2023-05-29T00:41:01.329Z,31.05
2023-05-29T00:42:01.370Z,31.04
2023-05-29T00:43:01.447Z,31.10
2023-05-29T00:44:01.505Z,31.10
2023-05-29T00:45:01.571Z,31.10
2023-05-29T00:46:01.684Z,31.09
2023-05-29T00:47:01.683Z,31.06
2023-05-29T00:48:01.764Z,31.07
2023-05-29T00:49:01.793Z,31.03
2023-05-29T00:50:01.852Z,31.05
2023-05-29T00:51:01.954Z,31.03
2023-05-29T00:52:01.999Z,31.01
2023-05-29T00:53:02.038Z,31.03
2023-05-29T00:54:02.110Z,31.01
2023-05-29T00:55:02.157Z,31.02
2023-05-29T00:56:02.228Z,31.00
2023-05-29T00:57:02.296Z,30.97
2023-05-29T00:58:02.384Z,31.00
2023-05-29T00:59:02.440Z,31.02
2023-05-29T01:00:02.491Z,30.96
2023-05-29T01:01:02.615Z,30.96
2023-05-29T01:02:02.671Z,30.97
2023-05-29T01:03:02.751Z,30.93
2023-05-29T01:04:02.716Z,30.97
2023-05-29T01:05:02.779Z,30.91
2023-05-29T01:06:02.851Z,30.91
2023-05-29T01:07:02.897Z,30.94
2023-05-29T01:08:02.976Z,30.97
2023-05-29T01:09:03.065Z,30.89
2023-05-29T01:10:03.058Z,30.93
2023-05-29T01:11:03.146Z,30.91
2023-05-29T01:12:03.231Z,30.91
2023-05-29T01:13:03.270Z,30.87
2023-05-29T01:14:03.361Z,30.89
2023-05-29T01:15:03.439Z,30.86
2023-05-29T01:16:03.488Z,30.90
2023-05-29T01:17:03.572Z,30.91
2023-05-29T01:18:03.580Z,30.83
2023-05-29T01:19:03.615Z,30.80
2023-05-29T01:20:03.681Z,30.86
2023-05-29T01:21:03.754Z,30.84
2023-05-29T01:22:03.806Z,30.80
2023-05-29T01:23:03.875Z,30.83
2023-05-29T01:24:03.892Z,30.77
2023-05-29T01:25:03.995Z,30.78
2023-05-29T01:26:04.028Z,30.81
2023-05-29T01:27:04.106Z,30.80
2023-05-29T01:28:04.155Z,30.80
2023-05-29T01:29:04.195Z,30.78
2023-05-29T01:30:04.270Z,30.81
2023-05-29T01:31:04.343Z,30.78
2023-05-29T01:32:04.373Z,30.80
2023-05-29T01:33:04.496Z,30.77
2023-05-29T01:34:04.538Z,30.80
2023-05-29T01:35:04.563Z,30.80
2023-05-29T01:36:04.606Z,30.78
2023-05-29T01:37:04.735Z,30.73
2023-05-29T01:38:04.750Z,30.76
2023-05-29T01:39:04.804Z,30.78
2023-05-29T01:40:04.852Z,30.70
2023-05-29T01:41:04.935Z,30.74
2023-05-29T01:42:04.962Z,30.74
2023-05-29T01:43:05.027Z,30.72
2023-05-29T01:44:05.121Z,30.71
2023-05-29T01:45:05.153Z,30.72
2023-05-29T01:46:05.229Z,30.72
2023-05-29T01:47:05.288Z,30.72
2023-05-29T01:48:05.388Z,30.64
2023-05-29T01:49:05.357Z,30.64
2023-05-29T01:50:05.453Z,30.68
2023-05-29T01:51:05.478Z,30.67
2023-05-29T01:52:05.540Z,30.59
2023-05-29T01:53:05.623Z,30.57
2023-05-29T01:54:05.678Z,30.67
2023-05-29T01:55:05.719Z,30.57
2023-05-29T01:56:05.745Z,30.54
2023-05-29T01:57:05.883Z,30.58
2023-05-29T01:58:05.843Z,30.58
2023-05-29T01:59:05.896Z,30.57
2023-05-29T02:00:05.955Z,30.53
2023-05-29T02:01:06.008Z,30.61
2023-05-29T02:02:06.033Z,30.58
2023-05-29T02:03:06.086Z,30.60
2023-05-29T02:04:06.162Z,30.54
2023-05-29T02:05:06.208Z,30.56
2023-05-29T02:06:06.232Z,30.53
2023-05-29T02:07:06.274Z,30.54
2023-05-29T02:08:06.350Z,30.57
2023-05-29T02:09:06.413Z,30.52
2023-05-29T02:10:06.474Z,30.56
2023-05-29T02:11:06.522Z,30.53
2023-05-29T02:12:06.581Z,30.51
2023-05-29T02:13:06.673Z,30.56
2023-05-29T02:14:06.722Z,30.46
2023-05-29T02:15:06.816Z,30.47
2023-05-29T02:16:06.947Z,30.46
2023-05-29T02:17:06.935Z,30.46
2023-05-29T02:18:07.065Z,30.51
2023-05-29T02:19:06.979Z,30.50
2023-05-29T02:20:07.068Z,30.47
2023-05-29T02:21:07.064Z,30.44
2023-05-29T02:22:07.093Z,30.48
2023-05-29T02:23:07.141Z,30.43
2023-05-29T02:24:07.202Z,30.46
2023-05-29T02:25:07.211Z,30.47
2023-05-29T02:26:07.281Z,30.47
2023-05-29T02:27:07.333Z,30.44
2023-05-29T02:28:07.365Z,30.38
2023-05-29T02:29:07.410Z,30.44
2023-05-29T02:30:07.431Z,30.41
2023-05-29T02:31:07.493Z,30.40
2023-05-29T02:32:07.549Z,30.37
2023-05-29T02:33:07.558Z,30.34
2023-05-29T02:34:07.570Z,30.41
2023-05-29T02:35:07.611Z,30.34
2023-05-29T02:36:07.666Z,30.39
2023-05-29T02:37:07.709Z,30.41
2023-05-29T02:38:07.720Z,30.37
2023-05-29T02:39:07.772Z,30.36
2023-05-29T02:40:07.914Z,30.30
2023-05-29T02:41:07.977Z,30.34
2023-05-29T02:42:08.123Z,30.28
2023-05-29T02:43:08.110Z,30.35
2023-05-29T02:44:08.211Z,30.33
2023-05-29T02:45:08.196Z,30.30
2023-05-29T02:46:08.196Z,30.31
2023-05-29T02:47:08.217Z,30.28
2023-05-29T02:48:08.232Z,30.27
2023-05-29T02:49:08.226Z,30.30
2023-05-29T02:50:08.271Z,30.31
2023-05-29T02:51:08.398Z,30.26
2023-05-29T02:52:08.430Z,30.27
2023-05-29T02:53:08.441Z,30.28
2023-05-29T02:54:08.471Z,30.24
2023-05-29T02:55:08.455Z,30.24
2023-05-29T02:56:08.451Z,30.28
2023-05-29T02:57:09.447Z,30.30
2023-05-29T02:58:08.444Z,30.25
2023-05-29T02:59:08.457Z,30.21
2023-05-29T03:00:08.437Z,30.18
2023-05-29T03:01:08.503Z,30.17
2023-05-29T03:02:08.491Z,30.21
2023-05-29T03:03:08.591Z,30.14
2023-05-29T03:04:08.568Z,30.14
2023-05-29T03:05:08.600Z,30.17
2023-05-29T03:06:08.736Z,30.15
2023-05-29T03:07:08.774Z,30.15
2023-05-29T03:08:08.910Z,30.14
2023-05-29T03:09:09.015Z,30.18
2023-05-29T03:10:08.994Z,30.21
2023-05-29T03:11:08.938Z,30.19
2023-05-29T03:12:08.975Z,30.21
2023-05-29T03:13:08.958Z,30.21
2023-05-29T03:14:08.936Z,30.19
2023-05-29T03:15:09.029Z,30.13
2023-05-29T03:16:09.182Z,30.17
2023-05-29T03:17:09.187Z,30.12
2023-05-29T03:18:09.313Z,30.15
2023-05-29T03:19:09.396Z,30.12
2023-05-29T03:20:09.493Z,30.18
2023-05-29T03:21:09.442Z,30.18
2023-05-29T03:22:09.479Z,30.14
2023-05-29T03:23:09.442Z,30.09
2023-05-29T03:24:09.454Z,30.11
2023-05-29T03:25:09.434Z,30.15
2023-05-29T03:26:09.467Z,30.07
2023-05-29T03:27:09.525Z,30.11
2023-05-29T03:28:09.671Z,30.08
2023-05-29T03:29:09.756Z,30.11
2023-05-29T03:30:09.707Z,30.07
2023-05-29T03:31:09.801Z,30.04
2023-05-29T03:32:09.732Z,30.04
2023-05-29T03:33:09.792Z,30.02
2023-05-29T03:34:09.725Z,30.04
2023-05-29T03:35:09.746Z,30.05
2023-05-29T03:36:09.839Z,30.01
2023-05-29T03:37:09.961Z,30.07
2023-05-29T03:38:10.025Z,30.01
2023-05-29T03:39:10.139Z,30.01
2023-05-29T03:40:10.113Z,30.01
2023-05-29T03:41:10.111Z,30.01
2023-05-29T03:42:10.106Z,30.01
2023-05-29T03:43:10.086Z,30.01
2023-05-29T03:44:10.105Z,30.03
2023-05-29T03:45:10.183Z,29.94
2023-05-29T03:46:10.231Z,29.95
2023-05-29T03:47:10.563Z,29.96
2023-05-29T03:48:10.445Z,30.00
2023-05-29T03:49:10.524Z,30.00
2023-05-29T03:50:10.608Z,29.98
2023-05-29T03:51:10.742Z,29.99
2023-05-29T03:52:10.813Z,29.95
2023-05-29T03:53:10.881Z,29.97
2023-05-29T03:54:10.882Z,29.94
2023-05-29T03:55:10.882Z,29.97
2023-05-29T03:56:10.885Z,29.97
2023-05-29T03:57:10.881Z,29.97
2023-05-29T03:58:10.874Z,29.98
2023-05-29T03:59:10.892Z,29.97
2023-05-29T04:00:10.887Z,29.97
2023-05-29T04:01:10.911Z,29.94
2023-05-29T04:02:13.821Z,29.95
2023-05-29T04:03:10.976Z,29.93
2023-05-29T04:04:10.940Z,29.91
2023-05-29T04:05:10.867Z,29.87
2023-05-29T04:06:10.866Z,29.85
2023-05-29T04:07:10.884Z,29.91
2023-05-29T04:08:16.053Z,29.96
2023-05-29T04:09:11.847Z,29.87
2023-05-29T04:10:10.814Z,29.90
2023-05-29T04:11:10.853Z,29.91
2023-05-29T04:12:10.816Z,29.90
2023-05-29T04:13:10.818Z,29.90
2023-05-29T04:14:10.809Z,29.87
2023-05-29T04:15:10.808Z,29.93
2023-05-29T04:16:10.801Z,29.87
2023-05-29T04:17:10.832Z,29.90
2023-05-29T04:18:10.795Z,29.88
2023-05-29T04:19:10.790Z,29.90
2023-05-29T04:20:10.777Z,29.86
2023-05-29T04:21:10.750Z,29.85
2023-05-29T04:22:10.761Z,29.84
2023-05-29T04:23:10.779Z,29.90
2023-05-29T04:24:10.747Z,29.84
2023-05-29T04:25:10.729Z,29.85
2023-05-29T04:26:10.728Z,29.82
2023-05-29T04:27:10.705Z,29.84
2023-05-29T04:28:10.759Z,29.84
2023-05-29T04:29:12.156Z,29.87
2023-05-29T04:30:10.699Z,29.81
2023-05-29T04:31:10.733Z,29.84
2023-05-29T04:32:10.702Z,29.81
2023-05-29T04:33:10.732Z,29.80
2023-05-29T04:34:10.722Z,29.86
2023-05-29T04:35:10.672Z,29.82
2023-05-29T04:36:10.650Z,29.84
2023-05-29T04:37:10.639Z,29.80
2023-05-29T04:38:10.716Z,29.86
2023-05-29T04:39:10.635Z,29.86
2023-05-29T04:40:10.647Z,29.83
2023-05-29T04:41:10.637Z,29.86
2023-05-29T04:42:10.619Z,29.80
2023-05-29T04:43:10.611Z,29.81
2023-05-29T04:44:10.603Z,29.80
2023-05-29T04:45:10.593Z,29.80
2023-05-29T04:46:10.604Z,29.76
2023-05-29T04:47:10.604Z,29.73
2023-05-29T04:48:10.593Z,29.76
2023-05-29T04:49:10.565Z,29.76
2023-05-29T04:50:10.574Z,29.73
2023-05-29T04:51:10.560Z,29.77
2023-05-29T04:52:10.556Z,29.75
2023-05-29T04:53:10.529Z,29.72
2023-05-29T04:54:10.626Z,29.76
2023-05-29T04:55:10.544Z,29.75
2023-05-29T04:56:10.556Z,29.75
2023-05-29T04:57:10.514Z,29.75
2023-05-29T04:58:10.508Z,29.76
2023-05-29T04:59:10.521Z,29.73
2023-05-29T05:01:29.443Z,29.81
2023-05-29T05:02:29.329Z,29.76
2023-05-29T05:03:29.303Z,29.78
2023-05-29T05:04:29.365Z,29.75
2023-05-29T05:05:29.279Z,29.78
2023-05-29T05:06:29.281Z,29.77
2023-05-29T05:07:29.300Z,29.76
2023-05-29T05:08:29.362Z,29.80
2023-05-29T05:09:29.437Z,29.73
2023-05-29T05:10:29.562Z,29.72
2023-05-29T05:11:29.598Z,29.77
2023-05-29T05:12:29.702Z,29.77
2023-05-29T05:13:29.810Z,29.76
2023-05-29T05:14:30.845Z,29.77
2023-05-29T05:15:29.836Z,29.81
2023-05-29T05:16:29.906Z,29.81
2023-05-29T05:17:29.803Z,29.78
2023-05-29T05:18:29.866Z,29.80
2023-05-29T05:19:29.959Z,29.73
2023-05-29T05:20:30.019Z,29.73
2023-05-29T05:21:30.008Z,29.69
2023-05-29T05:22:29.988Z,29.69
2023-05-29T05:23:29.955Z,29.69
2023-05-29T05:24:29.966Z,29.65
2023-05-29T05:25:30.002Z,29.66
2023-05-29T05:26:30.086Z,29.60
2023-05-29T05:27:30.184Z,29.67
2023-05-29T05:28:30.267Z,29.67
2023-05-29T05:29:30.398Z,29.70
2023-05-29T05:30:30.401Z,29.70
2023-05-29T05:31:30.427Z,29.73
2023-05-29T05:32:30.392Z,29.70
2023-05-29T05:33:30.354Z,29.68
2023-05-29T05:34:30.380Z,29.69
2023-05-29T05:35:30.482Z,29.73
2023-05-29T05:36:30.455Z,29.66
2023-05-29T05:37:30.430Z,29.67
2023-05-29T05:38:30.441Z,29.66
2023-05-29T05:39:30.407Z,29.67
2023-05-29T05:40:30.433Z,29.69
2023-05-29T05:41:30.487Z,29.69
2023-05-29T05:42:30.558Z,29.79
2023-05-29T05:43:30.677Z,29.69
2023-05-29T05:44:30.754Z,29.63
2023-05-29T05:45:30.732Z,29.67
2023-05-29T05:46:38.335Z,29.72
2023-05-29T05:47:30.833Z,29.71
2023-05-29T05:48:30.697Z,29.75
2023-05-29T05:49:31.058Z,29.70
2023-05-29T05:50:30.711Z,29.73
2023-05-29T05:51:30.702Z,29.75
2023-05-29T05:52:30.718Z,29.74
2023-05-29T05:53:30.735Z,29.75
2023-05-29T05:54:30.686Z,29.72
2023-05-29T05:55:30.699Z,29.76
2023-05-29T05:56:30.711Z,29.67
2023-05-29T05:57:30.715Z,29.72
2023-05-29T05:58:30.687Z,29.74
2023-05-29T05:59:30.666Z,29.71
2023-05-29T06:00:30.655Z,29.68
2023-05-29T06:01:30.687Z,29.72
2023-05-29T06:02:30.676Z,29.61
2023-05-29T06:03:30.814Z,29.65
2023-05-29T06:04:31.140Z,29.67
2023-05-29T06:05:30.602Z,29.65
2023-05-29T06:06:30.664Z,29.65
2023-05-29T06:07:30.628Z,29.71
2023-05-29T06:08:30.592Z,29.71
2023-05-29T06:09:30.583Z,29.67
2023-05-29T06:10:30.582Z,29.65
2023-05-29T06:11:30.611Z,29.67
2023-05-29T06:12:30.576Z,29.58
2023-05-29T06:13:30.593Z,29.64
2023-05-29T06:14:30.604Z,29.67
2023-05-29T06:15:30.572Z,29.67
2023-05-29T06:16:30.604Z,29.71
2023-05-29T06:17:30.691Z,29.65
2023-05-29T06:18:30.739Z,29.71
2023-05-29T06:19:30.771Z,29.66
2023-05-29T06:20:30.807Z,29.67
2023-05-29T06:21:30.891Z,29.64
2023-05-29T06:22:30.953Z,29.61
2023-05-29T06:23:30.992Z,29.61
2023-05-29T06:24:31.049Z,29.67
2023-05-29T06:25:31.175Z,29.59
2023-05-29T06:26:31.183Z,29.59
2023-05-29T06:27:31.225Z,29.64
2023-05-29T06:28:31.272Z,29.57
2023-05-29T06:29:31.369Z,29.60
2023-05-29T06:30:31.407Z,29.59
2023-05-29T06:31:31.534Z,29.61
2023-05-29T06:32:31.585Z,29.55
2023-05-29T06:33:31.611Z,29.62
2023-05-29T06:34:31.650Z,29.60
2023-05-29T06:35:31.689Z,29.61
2023-05-29T06:36:31.729Z,29.56
2023-05-29T06:37:31.811Z,29.52
2023-05-29T06:38:31.888Z,29.45
2023-05-29T06:39:31.921Z,29.45
2023-05-29T06:40:31.978Z,29.49
2023-05-29T06:41:32.046Z,29.51
2023-05-29T06:42:32.119Z,29.50
2023-05-29T06:43:32.236Z,29.53
2023-05-29T06:44:32.572Z,29.48
2023-05-29T06:45:32.347Z,29.45
2023-05-29T06:46:32.431Z,29.51
2023-05-29T06:47:32.553Z,29.49
2023-05-29T06:48:32.501Z,29.55
2023-05-29T06:49:32.565Z,29.46
2023-05-29T06:50:32.614Z,29.51
2023-05-29T06:51:32.685Z,29.50
2023-05-29T06:52:32.736Z,29.54
2023-05-29T06:53:32.801Z,29.51
2023-05-29T06:54:32.858Z,29.57
2023-05-29T06:55:32.912Z,29.50
2023-05-29T06:56:32.965Z,29.45
2023-05-29T06:57:33.036Z,29.45
2023-05-29T06:58:33.041Z,29.53
2023-05-29T06:59:33.153Z,29.50
2023-05-29T07:00:33.233Z,29.54
2023-05-29T07:01:33.326Z,29.46
2023-05-29T07:02:33.350Z,29.46
2023-05-29T07:03:33.426Z,29.44
2023-05-29T07:04:33.400Z,29.47
2023-05-29T07:05:33.454Z,29.46
2023-05-29T07:06:33.438Z,29.59
2023-05-29T07:07:33.504Z,29.30
2023-05-29T07:08:33.576Z,29.43
2023-05-29T07:09:33.619Z,29.32
2023-05-29T07:10:33.641Z,29.38
2023-05-29T07:11:33.640Z,29.45
2023-05-29T07:12:33.696Z,29.56
2023-05-29T07:13:33.739Z,29.42
2023-05-29T07:14:33.817Z,29.34
2023-05-29T07:15:33.821Z,29.40
2023-05-29T07:16:33.930Z,29.34
2023-05-29T07:17:33.957Z,29.30
2023-05-29T07:18:33.885Z,29.30
2023-05-29T07:19:34.082Z,29.32
2023-05-29T07:20:33.977Z,29.06
2023-05-29T07:21:34.021Z,29.27
2023-05-29T07:22:34.020Z,29.20
2023-05-29T07:23:34.052Z,29.32
2023-05-29T07:24:34.090Z,29.36
2023-05-29T07:25:34.066Z,29.42
2023-05-29T07:26:34.146Z,29.64
2023-05-29T07:27:34.158Z,29.53
2023-05-29T07:28:34.172Z,29.39
2023-05-29T07:29:34.215Z,29.33
2023-05-29T07:30:34.212Z,29.30
2023-05-29T07:31:34.292Z,29.51
2023-05-29T07:32:34.243Z,29.66
2023-05-29T07:33:34.281Z,29.58
2023-05-29T07:34:34.353Z,29.54
2023-05-29T07:35:34.319Z,29.53
2023-05-29T07:36:34.325Z,29.57
2023-05-29T07:37:34.335Z,29.47
2023-05-29T07:38:34.282Z,29.53
2023-05-29T07:39:34.320Z,29.36
2023-05-29T07:40:34.308Z,29.55
2023-05-29T07:41:34.347Z,29.50
2023-05-29T07:42:34.357Z,29.52
2023-05-29T07:43:34.327Z,29.50
2023-05-29T07:44:34.337Z,29.40
2023-05-29T07:45:34.321Z,29.41
2023-05-29T07:46:34.437Z,29.57
2023-05-29T07:47:34.346Z,29.42
2023-05-29T07:48:34.328Z,29.29
2023-05-29T07:49:34.367Z,29.16
2023-05-29T07:50:34.347Z,29.46
2023-05-29T07:51:34.385Z,29.35
2023-05-29T07:52:34.389Z,29.28
2023-05-29T07:53:34.499Z,29.38
2023-05-29T07:54:34.532Z,29.26
2023-05-29T07:55:34.638Z,29.27
2023-05-29T07:56:34.631Z,29.35
2023-05-29T07:57:34.781Z,29.34
2023-05-29T07:58:34.774Z,29.32
2023-05-29T07:59:34.911Z,29.28
2023-05-29T08:00:34.869Z,29.25
2023-05-29T08:01:34.899Z,29.34
2023-05-29T08:02:35.087Z,29.28
2023-05-29T08:03:35.165Z,29.16
2023-05-29T08:04:35.120Z,29.21
2023-05-29T08:05:35.144Z,29.32
2023-05-29T08:06:35.435Z,29.23
2023-05-29T08:07:35.276Z,29.21
2023-05-29T08:08:35.329Z,29.31
2023-05-29T08:09:35.388Z,29.19
2023-05-29T08:10:35.466Z,29.20
2023-05-29T08:11:35.508Z,29.28
2023-05-29T08:12:35.592Z,29.26
2023-05-29T08:13:35.632Z,29.25
2023-05-29T08:14:35.686Z,29.34
2023-05-29T08:15:35.763Z,29.33
2023-05-29T08:16:35.850Z,29.22
2023-05-29T08:17:35.886Z,29.43
2023-05-29T08:18:35.909Z,29.47
2023-05-29T08:19:35.979Z,29.44
2023-05-29T08:20:36.098Z,29.40
2023-05-29T08:21:36.048Z,29.54
2023-05-29T08:22:36.084Z,29.23
2023-05-29T08:23:36.164Z,29.34
2023-05-29T08:24:36.220Z,29.54
2023-05-29T08:25:36.267Z,29.46
2023-05-29T08:26:36.280Z,29.42
2023-05-29T08:27:36.327Z,29.47
2023-05-29T08:28:36.412Z,29.57
2023-05-29T08:29:36.478Z,29.53
2023-05-29T08:30:36.513Z,29.50
2023-05-29T08:31:36.605Z,29.51
2023-05-29T08:32:36.634Z,29.70
2023-05-29T08:33:36.676Z,29.64
2023-05-29T08:34:36.759Z,29.56
2023-05-29T08:35:36.764Z,29.44
2023-05-29T08:36:36.804Z,29.49
2023-05-29T08:37:36.874Z,29.49
2023-05-29T08:38:36.930Z,29.48
2023-05-29T08:39:36.989Z,29.31
2023-05-29T08:40:37.000Z,29.45
2023-05-29T08:41:37.033Z,29.41
2023-05-29T08:42:37.073Z,29.55
2023-05-29T08:43:37.130Z,29.37
2023-05-29T08:44:37.163Z,29.53
2023-05-29T08:45:37.192Z,29.44
2023-05-29T08:46:37.270Z,29.46
2023-05-29T08:47:37.291Z,29.46
2023-05-29T08:48:37.251Z,29.53
2023-05-29T08:49:37.298Z,29.39
2023-05-29T08:50:37.351Z,29.50
2023-05-29T08:51:37.370Z,29.63
2023-05-29T08:52:37.341Z,29.44
2023-05-29T08:53:37.401Z,29.63
2023-05-29T08:54:37.434Z,29.32
2023-05-29T08:55:37.417Z,29.57
2023-05-29T08:56:37.507Z,29.39
2023-05-29T08:57:37.457Z,29.44
2023-05-29T08:58:37.484Z,29.35
2023-05-29T08:59:37.604Z,29.45
2023-05-29T09:00:37.550Z,29.29
2023-05-29T09:01:37.664Z,29.25
2023-05-29T09:02:37.631Z,29.41
2023-05-29T09:03:37.600Z,29.35
2023-05-29T09:04:37.582Z,29.32
2023-05-29T09:05:37.629Z,29.39
2023-05-29T09:06:37.588Z,29.42
2023-05-29T09:07:37.589Z,29.37
2023-05-29T09:08:37.601Z,29.68
2023-05-29T09:09:37.602Z,29.35
2023-05-29T09:10:38.902Z,29.44
2023-05-29T09:11:37.618Z,29.20
2023-05-29T09:12:37.689Z,29.21
2023-05-29T09:13:37.706Z,29.20
2023-05-29T09:14:37.684Z,29.10
2023-05-29T09:15:37.669Z,29.20
2023-05-29T09:16:37.659Z,29.35
2023-05-29T09:17:37.746Z,29.13
2023-05-29T09:18:37.665Z,29.06
2023-05-29T09:19:37.676Z,29.21
2023-05-29T09:20:37.767Z,29.24
2023-05-29T09:21:37.692Z,29.30
2023-05-29T09:22:37.733Z,29.11
2023-05-29T09:23:37.710Z,29.24
2023-05-29T09:24:37.672Z,29.10
2023-05-29T09:25:37.696Z,29.33
2023-05-29T09:26:37.731Z,29.15
2023-05-29T09:27:37.667Z,29.24
2023-05-29T09:28:37.673Z,29.13
2023-05-29T09:29:37.698Z,28.98
2023-05-29T09:30:37.674Z,29.10
2023-05-29T09:31:37.751Z,29.04
2023-05-29T09:32:37.792Z,29.03
2023-05-29T09:33:37.695Z,29.37
2023-05-29T09:34:37.680Z,29.26
2023-05-29T09:35:37.684Z,29.09
2023-05-29T09:36:37.614Z,29.07
2023-05-29T09:37:37.649Z,29.15
2023-05-29T09:38:49.040Z,29.12
2023-05-29T09:39:38.681Z,28.99
2023-05-29T09:40:37.648Z,29.12
2023-05-29T09:41:37.610Z,29.01
2023-05-29T09:42:37.625Z,29.04
2023-05-29T09:43:37.642Z,29.02
2023-05-29T09:44:37.595Z,29.38
2023-05-29T09:45:37.637Z,29.01
2023-05-29T09:46:37.679Z,29.00
2023-05-29T09:47:37.551Z,28.64
2023-05-29T09:48:37.603Z,28.76
2023-05-29T09:49:37.579Z,28.51
2023-05-29T09:50:37.543Z,28.88
2023-05-29T09:51:37.526Z,28.81
2023-05-29T09:52:37.540Z,28.84
2023-05-29T09:53:37.529Z,28.91
2023-05-29T09:54:37.538Z,28.72
2023-05-29T09:55:37.554Z,28.48
2023-05-29T09:56:37.559Z,28.39
2023-05-29T09:57:37.514Z,28.56
2023-05-29T09:58:37.506Z,28.32
2023-05-29T09:59:37.488Z,28.35
2023-05-29T10:00:37.479Z,28.26
2023-05-29T10:01:37.534Z,28.17
2023-05-29T10:02:37.519Z,28.29
2023-05-29T10:03:37.527Z,28.25
2023-05-29T10:04:37.480Z,28.31
2023-05-29T10:05:37.720Z,28.32
2023-05-29T10:06:37.471Z,28.33
2023-05-29T10:07:37.556Z,28.37
2023-05-29T10:08:37.537Z,28.37
2023-05-29T10:09:37.590Z,28.47
2023-05-29T10:10:37.598Z,28.24
2023-05-29T10:11:37.606Z,28.49
2023-05-29T10:12:37.691Z,28.80
2023-05-29T10:13:37.834Z,28.42
2023-05-29T10:14:37.769Z,28.47
2023-05-29T10:15:37.941Z,28.41
2023-05-29T10:16:37.950Z,28.22
2023-05-29T10:17:37.934Z,28.31
2023-05-29T10:18:37.911Z,28.55
2023-05-29T10:19:37.943Z,28.23
2023-05-29T10:20:38.048Z,28.18
2023-05-29T10:21:38.043Z,28.34
2023-05-29T10:22:38.090Z,28.21
2023-05-29T10:23:38.152Z,28.24
2023-05-29T10:24:38.160Z,28.43
2023-05-29T10:25:38.257Z,28.04
2023-05-29T10:26:38.303Z,28.58
2023-05-29T10:27:38.358Z,28.18
2023-05-29T10:28:38.391Z,28.50
2023-05-29T10:29:38.743Z,28.36
2023-05-29T10:30:38.495Z,28.01
2023-05-29T10:31:38.555Z,27.98
2023-05-29T10:32:38.648Z,27.94
2023-05-29T10:33:38.645Z,27.90
2023-05-29T10:34:38.684Z,27.87
2023-05-29T10:35:38.735Z,27.87
2023-05-29T10:36:38.756Z,27.84
2023-05-29T10:37:38.816Z,27.83
2023-05-29T10:38:38.820Z,27.80
2023-05-29T10:39:38.879Z,28.21
2023-05-29T10:40:38.944Z,27.94
2023-05-29T10:41:38.995Z,27.89
2023-05-29T10:42:39.169Z,27.75
2023-05-29T10:43:39.110Z,27.82
2023-05-29T10:44:39.137Z,27.91
2023-05-29T10:45:39.217Z,27.87
2023-05-29T10:46:39.352Z,27.82
2023-05-29T10:47:39.371Z,27.61
2023-05-29T10:48:39.341Z,28.03
2023-05-29T10:49:39.453Z,27.78
2023-05-29T10:50:39.524Z,27.96
2023-05-29T10:51:39.530Z,27.67
2023-05-29T10:52:39.633Z,27.74
2023-05-29T10:53:39.680Z,27.78
2023-05-29T10:54:39.738Z,27.73
2023-05-29T10:55:39.828Z,27.66
2023-05-29T10:56:39.864Z,27.73
2023-05-29T10:57:39.930Z,27.84
2023-05-29T10:58:40.027Z,27.37
2023-05-29T10:59:40.039Z,27.47
2023-05-29T11:00:40.143Z,27.32
2023-05-29T11:01:40.211Z,27.36
2023-05-29T11:02:40.299Z,27.39
2023-05-29T11:03:40.416Z,27.39
2023-05-29T11:04:40.427Z,27.59
2023-05-29T11:05:40.460Z,27.61
2023-05-29T11:06:40.479Z,27.37
2023-05-29T11:07:40.536Z,27.42
2023-05-29T11:08:40.614Z,27.14
2023-05-29T11:09:40.663Z,27.20
2023-05-29T11:10:40.737Z,27.15
2023-05-29T11:11:40.734Z,26.99
2023-05-29T11:12:40.834Z,26.94
2023-05-29T11:13:40.904Z,26.99
2023-05-29T11:14:40.955Z,27.15
2023-05-29T11:15:40.993Z,27.17
2023-05-29T11:16:41.061Z,27.24
2023-05-29T11:17:41.243Z,27.38
2023-05-29T11:18:41.161Z,27.21
2023-05-29T11:19:41.247Z,27.13
2023-05-29T11:20:41.340Z,27.01
2023-05-29T11:21:41.370Z,27.13
2023-05-29T11:22:41.407Z,27.21
2023-05-29T11:23:41.484Z,27.17
2023-05-29T11:24:41.544Z,27.11
2023-05-29T11:25:41.577Z,27.15
2023-05-29T11:26:41.657Z,26.58
2023-05-29T11:27:41.778Z,26.75
2023-05-29T11:28:41.759Z,26.87
2023-05-29T11:29:41.877Z,27.07
2023-05-29T11:30:41.893Z,26.90
2023-05-29T11:31:42.004Z,26.56
2023-05-29T11:32:42.058Z,25.97
2023-05-29T11:33:42.070Z,26.04
2023-05-29T11:34:42.156Z,26.25
2023-05-29T11:35:42.169Z,25.96
2023-05-29T11:36:42.231Z,26.03
2023-05-29T11:37:42.358Z,26.20
2023-05-29T11:38:42.379Z,26.18
2023-05-29T11:39:42.507Z,26.22
2023-05-29T11:40:42.468Z,26.23
2023-05-29T11:41:42.584Z,26.39
2023-05-29T11:42:42.610Z,26.21
2023-05-29T11:43:42.624Z,26.05
2023-05-29T11:44:42.690Z,26.01
2023-05-29T11:45:42.740Z,26.25
2023-05-29T11:46:42.813Z,26.12
2023-05-29T11:47:42.997Z,25.98
2023-05-29T11:48:42.927Z,26.09
2023-05-29T11:49:43.070Z,25.35
2023-05-29T11:50:43.071Z,25.49
2023-05-29T11:51:43.155Z,25.56
2023-05-29T11:52:43.189Z,25.88
2023-05-29T11:53:43.258Z,25.83
2023-05-29T11:54:43.334Z,25.79
2023-05-29T11:55:43.317Z,25.52
2023-05-29T11:56:43.420Z,25.65
2023-05-29T11:57:43.429Z,25.42
2023-05-29T11:58:43.498Z,25.10
2023-05-29T11:59:44.223Z,25.08
2023-05-29T12:00:43.646Z,25.09
2023-05-29T12:01:43.653Z,25.12
2023-05-29T12:02:43.857Z,25.24
2023-05-29T12:03:43.834Z,25.20
2023-05-29T12:04:43.903Z,25.17
2023-05-29T12:05:43.979Z,25.28
2023-05-29T12:06:44.005Z,25.11
2023-05-29T12:07:44.030Z,25.02
2023-05-29T12:08:44.076Z,24.95
2023-05-29T12:09:44.118Z,24.87
2023-05-29T12:10:44.199Z,24.89
2023-05-29T12:11:44.231Z,24.81
2023-05-29T12:12:44.281Z,24.65
2023-05-29T12:13:44.373Z,24.85
2023-05-29T12:14:44.360Z,24.88
2023-05-29T12:15:44.469Z,24.64
2023-05-29T12:16:46.481Z,24.77
2023-05-29T12:17:44.624Z,24.98
2023-05-29T12:18:44.544Z,24.95
2023-05-29T12:19:44.657Z,24.87
2023-05-29T12:20:44.697Z,24.90
2023-05-29T12:21:44.719Z,24.86
2023-05-29T12:22:44.720Z,24.93
2023-05-29T12:23:44.791Z,25.08
2023-05-29T12:24:44.805Z,24.91
2023-05-29T12:25:44.809Z,24.79
2023-05-29T12:26:44.827Z,24.77
2023-05-29T12:27:44.874Z,24.75
2023-05-29T12:28:44.916Z,24.64
2023-05-29T12:29:44.932Z,24.77
2023-05-29T12:30:44.998Z,24.83
2023-05-29T12:31:45.068Z,24.78
2023-05-29T12:32:45.122Z,24.79
2023-05-29T12:33:45.112Z,24.44
2023-05-29T12:34:45.183Z,24.17
2023-05-29T12:35:45.175Z,24.31
2023-05-29T12:36:45.240Z,24.25
2023-05-29T12:37:45.297Z,24.31
2023-05-29T12:38:45.301Z,24.41
2023-05-29T12:39:45.346Z,24.33
2023-05-29T12:40:45.423Z,24.37
2023-05-29T12:41:45.420Z,24.26
2023-05-29T12:42:45.432Z,24.25
2023-05-29T12:43:45.486Z,24.28
2023-05-29T12:44:45.497Z,23.94
2023-05-29T12:45:45.468Z,23.70
2023-05-29T12:46:45.548Z,23.90
2023-05-29T12:47:45.500Z,23.80
2023-05-29T12:48:45.517Z,23.83
2023-05-29T12:49:45.477Z,23.66
2023-05-29T12:50:45.500Z,23.87
2023-05-29T12:51:45.522Z,23.92
2023-05-29T12:52:45.496Z,23.75
2023-05-29T12:53:45.512Z,23.92
2023-05-29T12:54:45.505Z,24.04